createdAt,value
2018-07-04T01:32:07.340Z,98876.94
2018-07-04T01:34:46.663Z,98997.97
2018-07-04T01:37:25.861Z,98989.16
2018-07-04T01:40:05.251Z,98962.98
2018-07-04T01:42:44.875Z,98980.84
2018-07-04T01:45:24.449Z,98994.36
2018-07-04T01:48:04.968Z,98979.48
2018-07-04T01:50:44.462Z,98979.91
2018-07-04T01:53:24.154Z,98950.55
2018-07-04T01:56:03.306Z,98955.29
2018-07-04T01:58:42.930Z,98957.59
2018-07-04T02:01:22.163Z,98974.14
2018-07-04T02:04:01.658Z,98958.26
2018-07-04T02:06:41.032Z,98972.37
2018-07-04T02:09:20.302Z,98965.77
2018-07-04T02:11:59.700Z,98931.78
2018-07-04T02:14:39.351Z,98961.05
2018-07-04T02:17:18.357Z,98966.92
2018-07-04T02:19:57.587Z,98960.81
2018-07-04T02:22:36.854Z,98890.33
2018-07-04T02:25:17.096Z,98951.65
2018-07-04T02:27:56.672Z,98958.55
2018-07-04T02:30:36.700Z,98932.22
2018-07-04T02:33:15.845Z,98948.38
2018-07-04T02:35:54.946Z,98941.03
2018-07-04T02:38:34.696Z,98963.30
2018-07-04T02:41:13.624Z,98953.39
2018-07-04T02:43:52.923Z,98965.61
2018-07-04T02:46:37.419Z,98964.36
2018-07-04T02:49:16.859Z,98932.64
2018-07-04T02:51:56.066Z,98963.72
2018-07-04T02:54:36.032Z,98958.89
2018-07-04T02:57:15.480Z,98951.63
2018-07-04T02:59:54.613Z,98950.08
2018-07-04T03:02:33.570Z,98934.05
2018-07-04T03:05:13.059Z,98944.87
2018-07-04T03:07:52.395Z,98956.32
2018-07-04T03:10:32.270Z,98962.94
2018-07-04T03:13:11.538Z,98965.75
2018-07-04T03:15:50.809Z,98943.36
2018-07-04T03:18:30.482Z,98953.91
2018-07-04T03:21:09.697Z,98929.47
2018-07-04T03:23:48.754Z,98959.25
2018-07-04T03:26:27.744Z,98961.31
2018-07-04T03:29:07.000Z,98955.17
2018-07-04T03:31:49.044Z,98947.05
2018-07-04T03:34:28.319Z,98961.29
2018-07-04T03:37:09.188Z,98986.77
2018-07-04T03:39:48.270Z,98960.16
2018-07-04T03:42:27.670Z,98957.09
2018-07-04T03:45:06.741Z,98957.72
2018-07-04T03:47:45.853Z,98955.81
2018-07-04T03:50:25.267Z,98925.52
2018-07-04T03:53:04.590Z,98937.00
2018-07-04T03:55:43.875Z,98950.48
2018-07-04T03:58:23.527Z,98957.10
2018-07-04T04:01:02.739Z,98953.67
2018-07-04T04:03:42.251Z,98949.09
2018-07-04T04:06:21.376Z,98895.36
2018-07-04T04:09:00.838Z,98921.09
2018-07-04T04:11:43.968Z,98949.19
2018-07-04T04:14:23.468Z,98949.19
2018-07-04T04:17:02.626Z,98930.63
2018-07-04T04:19:42.476Z,98966.52
2018-07-04T04:22:21.981Z,98960.16
2018-07-04T04:25:01.420Z,98961.94
2018-07-04T04:27:40.843Z,98957.33
2018-07-04T04:30:20.101Z,98936.48
2018-07-04T04:32:58.971Z,98961.30
2018-07-04T04:35:40.842Z,98933.79
2018-07-04T04:38:20.068Z,98951.09
2018-07-04T04:40:59.666Z,98945.34
2018-07-04T04:43:38.813Z,98923.47
2018-07-04T04:46:18.019Z,98959.60
2018-07-04T04:48:58.111Z,98946.86
2018-07-04T04:51:37.171Z,98947.91
2018-07-04T04:54:16.385Z,98921.91
2018-07-04T04:56:55.528Z,98958.53
2018-07-04T04:59:34.822Z,98957.40
2018-07-04T05:02:13.780Z,98940.70
2018-07-04T05:04:52.957Z,98954.31
2018-07-04T05:07:31.817Z,98941.36
2018-07-04T05:10:11.117Z,98940.28
2018-07-04T05:12:50.664Z,98957.69
2018-07-04T05:15:31.892Z,98951.94
2018-07-04T05:18:11.408Z,98959.05
2018-07-04T05:20:50.853Z,98866.16
2018-07-04T05:23:29.916Z,98960.00
2018-07-04T05:26:11.193Z,98957.16
2018-07-04T05:28:50.362Z,98964.37
2018-07-04T05:31:29.411Z,98959.86
2018-07-04T05:34:08.881Z,98948.86
2018-07-04T05:36:47.852Z,98962.02
2018-07-04T05:39:27.421Z,98962.73
2018-07-04T05:42:06.911Z,98958.69
2018-07-04T05:44:46.796Z,98990.03
2018-07-04T05:47:26.857Z,98960.45
2018-07-04T05:50:06.500Z,98963.79
2018-07-04T05:52:46.043Z,98873.66
2018-07-04T05:55:25.955Z,98873.66
2018-07-04T05:58:05.563Z,98968.64
2018-07-04T06:00:46.190Z,98969.81
2018-07-04T06:03:25.285Z,98967.89
2018-07-04T06:06:04.760Z,98993.14
2018-07-04T06:08:44.176Z,98964.00
2018-07-04T06:11:24.290Z,98962.91
2018-07-04T06:14:03.504Z,98968.22
2018-07-04T06:16:42.964Z,98966.19
2018-07-04T06:19:22.072Z,98962.41
2018-07-04T06:22:02.149Z,98962.95
2018-07-04T06:24:41.190Z,98960.58
2018-07-04T06:27:20.880Z,98960.41
2018-07-04T06:30:05.098Z,98962.81
2018-07-04T06:32:45.181Z,98959.32
2018-07-04T06:35:24.304Z,98960.80
2018-07-04T06:37:51.191Z,98961.09
2018-07-04T06:40:19.391Z,98945.88
2018-07-04T06:42:52.513Z,98964.64
2018-07-04T06:45:20.610Z,98931.31
2018-07-04T06:47:47.424Z,98968.89
2018-07-04T06:50:14.702Z,98958.76
2018-07-04T06:52:41.878Z,98957.69
2018-07-04T06:55:08.911Z,98956.81
2018-07-04T06:57:35.930Z,98949.95
2018-07-04T07:00:06.183Z,98953.69
2018-07-04T07:02:33.340Z,98959.59
2018-07-04T07:05:19.092Z,98890.47
2018-07-04T07:08:01.010Z,98948.70
2018-07-04T07:10:40.516Z,98945.66
2018-07-04T07:13:21.084Z,98924.41
2018-07-04T07:15:59.888Z,98935.12
2018-07-04T07:18:39.352Z,98945.16
2018-07-04T07:21:19.409Z,98926.00
2018-07-04T07:23:59.363Z,98947.61
2018-07-04T07:26:38.681Z,98953.45
2018-07-04T07:29:17.844Z,98942.23
2018-07-04T07:31:57.105Z,98947.33
2018-07-04T07:34:36.578Z,98943.16
2018-07-04T07:37:15.923Z,98938.47
2018-07-04T07:39:55.402Z,98947.97
2018-07-04T07:42:34.433Z,98928.63
2018-07-04T07:45:14.334Z,98940.46
2018-07-04T07:47:53.578Z,98937.98
2018-07-04T07:50:33.395Z,98937.83
2018-07-04T07:53:12.755Z,98935.43
2018-07-04T07:55:52.784Z,98930.02
2018-07-04T07:58:32.327Z,98926.69
2018-07-04T08:01:11.677Z,98926.56
2018-07-04T08:03:50.645Z,98930.84
2018-07-04T08:09:13.547Z,98917.50
2018-07-04T08:11:54.428Z,98924.33
2018-07-04T08:14:33.686Z,98918.69
2018-07-04T08:17:13.013Z,98921.71
2018-07-04T08:19:52.042Z,98917.43
2018-07-04T08:22:31.147Z,98903.02
2018-07-04T08:25:10.312Z,98907.50
2018-07-04T08:27:49.705Z,98905.30
2018-07-04T08:30:29.086Z,98918.61
2018-07-04T08:33:08.616Z,98916.89
2018-07-04T08:35:48.394Z,98915.27
2018-07-04T08:38:27.540Z,98894.67
2018-07-04T08:41:07.175Z,98903.94
2018-07-04T08:43:46.090Z,98903.31
2018-07-04T08:46:26.384Z,98911.24
2018-07-04T08:49:05.588Z,98907.43
2018-07-04T08:51:45.081Z,98916.42
2018-07-04T08:54:24.193Z,98899.48
2018-07-04T08:57:04.289Z,98900.59
2018-07-04T08:59:43.548Z,98896.14
2018-07-04T09:02:22.628Z,98902.02
2018-07-04T09:05:02.260Z,98892.00
2018-07-04T09:07:42.384Z,98907.14
2018-07-04T09:10:21.672Z,98904.17
2018-07-04T09:13:02.275Z,98907.14
2018-07-04T09:15:41.533Z,98898.90
2018-07-04T09:18:21.123Z,98882.16
2018-07-04T09:21:00.784Z,98899.49
2018-07-04T09:23:40.324Z,98897.25
2018-07-04T09:26:21.415Z,98898.00
2018-07-04T09:29:00.786Z,98900.11
2018-07-04T09:31:39.726Z,98894.31
2018-07-04T09:34:19.218Z,98893.49
2018-07-04T09:36:58.309Z,98887.21
2018-07-04T09:39:38.456Z,98893.50
2018-07-04T09:42:18.865Z,98896.77
2018-07-04T09:44:58.363Z,98893.02
2018-07-04T09:47:38.317Z,98897.92
2018-07-04T09:50:18.059Z,98895.53
2018-07-04T09:52:57.599Z,98887.37
2018-07-04T09:55:37.562Z,98893.63
2018-07-04T09:58:17.746Z,98887.33
2018-07-04T10:01:03.850Z,98876.25
2018-07-04T10:03:46.270Z,98887.14
2018-07-04T10:06:27.211Z,98879.18
2018-07-04T10:09:06.545Z,98887.70
2018-07-04T10:11:45.951Z,98877.45
2018-07-04T10:14:25.287Z,98869.39
2018-07-04T10:17:05.567Z,98871.01
2018-07-04T10:19:45.724Z,98867.63
2018-07-04T10:22:26.340Z,98867.67
2018-07-04T10:25:07.492Z,98873.53
2018-07-04T10:27:47.663Z,98873.68
2018-07-04T10:30:27.791Z,98876.55
2018-07-04T10:33:08.327Z,98892.67
2018-07-04T10:35:48.679Z,98877.41
2018-07-04T10:38:28.001Z,98877.52
2018-07-04T10:41:07.340Z,98863.27
2018-07-04T10:43:54.004Z,98860.86
2018-07-04T10:46:35.420Z,98863.81
2018-07-04T10:49:16.481Z,98842.13
2018-07-04T10:51:55.563Z,98872.07
2018-07-04T10:54:35.152Z,98848.64
2018-07-04T10:57:16.073Z,98857.63
2018-07-04T10:59:57.131Z,98864.12
2018-07-04T11:02:37.794Z,98851.06
2018-07-04T11:05:18.866Z,98856.98
2018-07-04T11:07:59.272Z,98850.07
2018-07-04T11:10:40.403Z,98863.91
2018-07-04T11:13:23.771Z,98862.62
2018-07-04T11:16:05.591Z,98867.39
2018-07-04T11:18:47.684Z,98859.98
2018-07-04T11:21:29.444Z,98856.48
2018-07-04T11:24:10.557Z,98854.76
2018-07-04T11:26:56.884Z,98844.52
2018-07-04T11:32:26.559Z,98816.14
2018-07-04T11:35:06.248Z,98837.81
2018-07-04T11:37:45.997Z,98841.44
2018-07-04T11:40:25.194Z,98830.86
2018-07-04T11:43:04.238Z,98841.06
2018-07-04T11:45:43.460Z,98832.00
2018-07-04T11:48:14.473Z,98827.69
2018-07-04T11:50:44.103Z,98778.02
2018-07-04T11:53:12.493Z,98813.07
2018-07-04T11:55:39.552Z,98812.19
2018-07-04T11:58:07.115Z,98814.39
2018-07-04T12:00:34.162Z,98800.81
2018-07-04T12:03:02.113Z,98830.21
2018-07-04T12:05:42.229Z,98823.39
2018-07-04T12:08:09.136Z,98815.86
2018-07-04T12:10:35.928Z,98816.16
2018-07-04T12:13:04.876Z,98815.45
2018-07-04T12:15:32.828Z,98828.13
2018-07-04T12:18:02.838Z,98822.09
2018-07-04T12:20:30.372Z,98806.53
2018-07-04T12:22:58.038Z,98814.64
2018-07-04T12:25:25.719Z,98820.15
2018-07-04T12:27:53.072Z,98802.13
2018-07-04T12:30:20.037Z,98792.16
2018-07-04T12:32:48.199Z,98816.20
2018-07-04T12:35:15.744Z,98808.02
2018-07-04T12:37:42.873Z,98802.11
2018-07-04T12:40:09.968Z,98815.53
2018-07-04T12:42:37.216Z,98800.93
2018-07-04T12:45:04.802Z,98762.22
2018-07-04T12:47:31.731Z,98796.55
2018-07-04T12:49:59.227Z,98798.23
2018-07-04T12:52:26.295Z,98787.30
2018-07-04T12:55:07.098Z,98796.89
2018-07-04T12:57:47.532Z,98786.44
2018-07-04T13:00:26.568Z,98797.83
2018-07-04T13:03:06.063Z,98792.55
2018-07-04T13:05:45.470Z,98790.27
2018-07-04T13:08:24.843Z,98780.06
2018-07-04T13:11:04.499Z,98781.52
2018-07-04T13:13:45.015Z,98770.44
2018-07-04T13:16:25.844Z,98739.38
2018-07-04T13:19:05.090Z,98773.23
2018-07-04T13:21:44.085Z,98763.94
2018-07-04T13:24:23.998Z,98768.38
2018-07-04T13:27:03.459Z,98758.70
2018-07-04T13:29:44.260Z,98756.88
2018-07-04T13:32:24.132Z,98755.03
2018-07-04T13:35:05.086Z,98761.39
2018-07-04T13:37:47.444Z,98760.03
2018-07-04T13:40:28.136Z,98754.42
2018-07-04T13:43:08.312Z,98732.02
2018-07-04T13:45:50.565Z,98751.61
2018-07-04T13:48:31.201Z,98737.10
2018-07-04T13:51:11.661Z,98758.60
2018-07-04T13:53:51.616Z,98753.36
2018-07-04T13:56:31.518Z,98766.90
2018-07-04T13:59:15.319Z,98754.92
2018-07-04T14:01:55.002Z,98762.66
2018-07-04T14:07:24.596Z,98740.72
2018-07-04T14:10:06.059Z,98754.02
2018-07-04T14:12:51.101Z,98759.23
2018-07-04T14:15:31.261Z,98755.30
2018-07-04T14:18:10.869Z,98752.69
2018-07-04T14:20:51.166Z,98759.50
2018-07-04T14:23:31.648Z,98763.31
2018-07-04T14:26:14.240Z,98737.89
2018-07-04T14:28:54.439Z,98766.81
2018-07-04T14:31:41.241Z,98774.02
2018-07-04T14:34:25.397Z,98772.75
2018-07-04T14:37:06.064Z,98770.83
2018-07-04T14:39:46.662Z,98724.02
2018-07-04T14:42:25.829Z,98772.10
2018-07-04T14:45:07.516Z,98716.02
2018-07-04T14:47:48.404Z,98790.74
2018-07-04T14:50:32.910Z,98773.05
2018-07-04T14:53:12.692Z,98775.37
2018-07-04T14:55:57.654Z,98759.47
2018-07-04T14:58:36.968Z,98761.27
2018-07-04T15:01:17.638Z,98715.36
2018-07-04T15:04:00.352Z,98759.02
2018-07-04T15:06:40.640Z,98753.29
2018-07-04T15:09:21.658Z,98755.77
2018-07-04T15:12:06.070Z,98736.75
2018-07-04T15:14:49.105Z,98753.68
2018-07-04T15:17:30.114Z,98749.73
2018-07-04T15:20:10.339Z,98735.70
2018-07-04T15:22:53.717Z,98744.79
2018-07-04T15:25:34.470Z,98742.25
2018-07-04T15:28:15.859Z,98726.39
2018-07-04T15:33:40.969Z,98743.41
2018-07-04T15:36:21.702Z,98737.39
2018-07-04T15:39:01.249Z,98737.00
2018-07-04T15:41:40.982Z,98734.52
2018-07-04T15:44:20.988Z,98744.13
2018-07-04T15:47:02.229Z,98729.49
2018-07-04T15:49:47.265Z,98740.89
2018-07-04T15:52:26.640Z,98738.73
2018-07-04T15:55:06.320Z,98732.30
2018-07-04T15:57:46.736Z,98733.22
2018-07-04T16:00:33.117Z,98698.95
2018-07-04T16:03:13.097Z,98722.44
2018-07-04T16:05:53.203Z,98730.27
2018-07-04T16:08:33.338Z,98732.72
2018-07-04T16:11:14.310Z,98724.59
2018-07-04T16:13:54.696Z,98724.09
2018-07-04T16:16:35.556Z,98721.84
2018-07-04T16:19:15.639Z,98734.42
2018-07-04T16:21:57.401Z,98707.03
2018-07-04T16:24:36.768Z,98709.71
2018-07-04T16:27:16.625Z,98713.78
2018-07-04T16:29:55.910Z,98717.17
2018-07-04T16:32:36.136Z,98710.41
2018-07-04T16:35:15.723Z,98723.78
2018-07-04T16:37:55.256Z,98726.19
2018-07-04T16:40:35.826Z,98728.98
2018-07-04T16:43:15.526Z,98705.03
2018-07-04T16:45:56.375Z,98735.75
2018-07-04T16:48:36.755Z,98734.72
2018-07-04T16:51:15.980Z,98730.50
2018-07-04T16:53:58.103Z,98731.25
2018-07-04T16:56:37.305Z,98731.80
2018-07-04T16:59:17.687Z,98727.17
2018-07-04T17:01:58.068Z,98730.61
2018-07-04T17:04:38.294Z,98732.27
2018-07-04T17:07:18.794Z,98729.70
2018-07-04T17:10:01.085Z,98731.21
2018-07-04T17:15:32.657Z,98717.83
2018-07-04T17:18:12.877Z,98712.87
2018-07-04T17:20:53.898Z,98721.94
2018-07-04T17:23:34.334Z,98712.64
2018-07-04T17:26:18.375Z,98708.75
2018-07-04T17:29:01.008Z,98706.82
2018-07-04T17:31:41.409Z,98702.10
2018-07-04T17:34:21.149Z,98697.64
2018-07-04T17:37:00.675Z,98668.31
2018-07-04T17:39:43.576Z,98696.53
2018-07-04T17:42:24.607Z,98695.97
2018-07-04T17:45:06.322Z,98694.00
2018-07-04T17:47:47.287Z,98694.53
2018-07-04T17:50:30.523Z,98690.13
2018-07-04T17:53:10.150Z,98690.02
2018-07-04T17:55:50.302Z,98690.06
2018-07-04T17:58:30.029Z,98683.42
2018-07-04T18:01:10.868Z,98664.71
2018-07-04T18:03:50.283Z,98689.63
2018-07-04T18:06:31.709Z,98688.55
2018-07-04T18:09:17.254Z,98688.20
2018-07-04T18:11:59.852Z,98694.65
2018-07-04T18:14:39.228Z,98684.22
2018-07-04T18:17:19.712Z,98687.92
2018-07-04T18:20:05.457Z,98684.06
2018-07-04T18:22:46.529Z,98690.13
2018-07-04T18:25:26.160Z,98685.56
2018-07-04T18:28:08.282Z,98690.87
2018-07-04T18:30:52.009Z,98686.27
2018-07-04T18:33:33.660Z,98681.70
2018-07-04T18:36:15.197Z,98684.86
2018-07-04T18:41:47.014Z,98680.36
2018-07-04T18:44:31.170Z,98679.95
2018-07-04T18:47:16.263Z,98676.38
2018-07-04T18:49:56.029Z,98671.89
2018-07-04T18:52:35.398Z,98660.98
2018-07-04T18:55:17.207Z,98662.70
2018-07-04T18:58:00.286Z,98657.58
2018-07-04T19:00:41.588Z,98588.23
2018-07-04T19:03:22.343Z,98651.67
2018-07-04T19:06:03.024Z,98652.95
2018-07-04T19:08:44.221Z,98659.49
2018-07-04T19:11:27.129Z,98656.23
2018-07-04T19:14:09.881Z,98660.85
2018-07-04T19:16:51.047Z,98652.98
2018-07-04T19:19:37.017Z,98657.16
2018-07-04T19:22:17.033Z,98661.18
2018-07-04T19:24:56.523Z,98664.78
2018-07-04T19:27:37.748Z,98645.77
2018-07-04T19:30:18.118Z,98677.09
2018-07-04T19:32:58.043Z,98677.41
2018-07-04T19:35:38.653Z,98674.47
2018-07-04T19:38:19.865Z,98678.14
2018-07-04T19:41:00.011Z,98689.66
2018-07-04T19:43:40.158Z,98681.25
2018-07-04T19:46:20.242Z,98685.80
2018-07-04T19:49:01.497Z,98683.46
2018-07-04T19:51:41.532Z,98689.18
2018-07-04T19:54:21.934Z,98683.89
2018-07-04T19:57:01.976Z,98691.20
2018-07-04T19:59:43.264Z,98684.83
2018-07-04T20:02:23.112Z,98669.23
2018-07-04T20:05:04.918Z,98695.88
2018-07-04T20:07:44.568Z,98699.14
2018-07-04T20:10:25.150Z,98696.75
2018-07-04T20:13:06.354Z,98699.53
2018-07-04T20:15:47.486Z,98708.70
2018-07-04T20:18:26.785Z,98679.75
2018-07-04T20:21:05.817Z,98696.59
2018-07-04T20:23:46.284Z,98699.08
2018-07-04T20:26:25.901Z,98700.42
2018-07-04T20:29:06.272Z,98684.43
2018-07-04T20:31:47.968Z,98688.84
2018-07-04T20:34:31.180Z,98691.80
2018-07-04T20:37:11.119Z,98693.38
2018-07-04T20:39:51.946Z,98692.39
2018-07-04T20:42:40.060Z,98701.06
2018-07-04T20:45:20.542Z,98696.70
2018-07-04T20:47:59.829Z,98693.67
2018-07-04T20:50:39.355Z,98693.95
2018-07-04T20:53:18.495Z,98699.19
2018-07-04T20:55:57.993Z,98691.13
2018-07-04T20:58:37.099Z,98687.69
2018-07-04T21:01:17.084Z,98681.23
2018-07-04T21:03:56.264Z,98689.30
2018-07-04T21:06:35.802Z,98681.70
2018-07-04T21:09:15.277Z,98677.53
2018-07-04T21:11:54.954Z,98669.86
2018-07-04T21:14:34.106Z,98668.91
2018-07-04T21:17:13.577Z,98671.95
2018-07-04T21:19:52.587Z,98634.91
2018-07-04T21:22:33.521Z,98589.10
2018-07-04T21:25:12.544Z,98666.68
2018-07-04T21:27:52.460Z,98687.48
2018-07-04T21:30:31.530Z,98688.70
2018-07-04T21:33:11.547Z,98689.26
2018-07-04T21:35:51.141Z,98697.53
2018-07-04T21:38:31.119Z,98696.24
2018-07-04T21:41:11.218Z,98692.80
2018-07-04T21:43:52.732Z,98691.03
2018-07-04T21:46:33.145Z,98635.53
2018-07-04T21:49:12.800Z,98688.91
2018-07-04T21:51:52.621Z,98688.77
2018-07-04T21:54:32.195Z,98688.25
2018-07-04T21:57:12.058Z,98679.57
2018-07-04T21:59:55.756Z,98685.22
2018-07-04T22:02:36.048Z,98680.63
2018-07-04T22:05:20.152Z,98683.33
2018-07-04T22:08:00.201Z,98673.13
2018-07-04T22:10:40.723Z,98667.33
2018-07-04T22:13:19.868Z,98676.28
2018-07-04T22:15:59.551Z,98680.95
2018-07-04T22:18:39.066Z,98679.56
2018-07-04T22:21:18.600Z,98676.67
2018-07-04T22:23:58.278Z,98676.36
2018-07-04T22:26:37.691Z,98679.54
2018-07-04T22:29:17.848Z,98654.94
2018-07-04T22:31:57.211Z,98678.08
2018-07-04T22:34:37.737Z,98686.45
2018-07-04T22:37:16.711Z,98690.39
2018-07-04T22:39:56.563Z,98690.41
2018-07-04T22:42:35.560Z,98693.17
2018-07-04T22:45:15.170Z,98696.02
2018-07-04T22:47:54.748Z,98684.39
2018-07-04T22:50:33.964Z,98684.47
2018-07-04T22:53:13.628Z,98688.27
2018-07-04T22:55:53.161Z,98665.19
2018-07-04T22:58:32.915Z,98687.12
2018-07-04T23:01:12.767Z,98671.00
2018-07-04T23:03:53.051Z,98678.34
2018-07-04T23:06:32.677Z,98680.34
2018-07-04T23:09:12.607Z,98678.85
2018-07-04T23:11:52.712Z,98679.51
2018-07-04T23:14:32.285Z,98686.23
2018-07-04T23:17:11.465Z,98684.35
2018-07-04T23:19:51.382Z,98684.83
2018-07-04T23:22:31.182Z,98684.48
2018-07-04T23:25:10.883Z,98686.58
2018-07-04T23:27:50.463Z,98694.08
2018-07-04T23:30:30.078Z,98677.95
2018-07-04T23:33:09.132Z,98689.48
2018-07-04T23:35:48.525Z,98681.81
2018-07-04T23:38:28.074Z,98676.17
2018-07-04T23:41:07.098Z,98674.47
2018-07-04T23:43:47.144Z,98675.23
2018-07-04T23:46:27.130Z,98681.80
2018-07-04T23:49:07.718Z,98681.13
2018-07-04T23:51:47.192Z,98670.16
2018-07-04T23:54:26.493Z,98679.53
2018-07-04T23:57:05.762Z,98668.88
2018-07-04T23:59:45.299Z,98673.34
